createdAt,value
2019-03-23T00:00:37.266Z,14.23
2019-03-23T00:03:09.952Z,13.00
2019-03-23T00:05:45.256Z,13.83
2019-03-23T00:08:19.117Z,13.33
2019-03-23T00:10:57.508Z,14.67
2019-03-23T00:13:30.245Z,14.07
2019-03-23T00:16:04.840Z,12.67
2019-03-23T00:18:37.192Z,13.00
2019-03-23T00:21:09.530Z,13.90
2019-03-23T00:23:41.212Z,14.00
2019-03-23T00:26:16.673Z,12.67
2019-03-23T00:28:48.987Z,12.73
2019-03-23T00:31:20.922Z,11.57
2019-03-23T00:33:53.277Z,13.33
2019-03-23T00:36:25.298Z,14.03
2019-03-23T00:38:57.640Z,12.17
2019-03-23T00:41:30.669Z,12.60
2019-03-23T00:44:03.016Z,13.37
2019-03-23T00:46:39.505Z,14.03
2019-03-23T00:49:11.239Z,13.40
2019-03-23T00:51:44.339Z,13.37
2019-03-23T00:54:16.566Z,13.43
2019-03-23T00:56:51.793Z,13.70
2019-03-23T00:59:23.910Z,13.40
2019-03-23T01:01:55.382Z,13.00
2019-03-23T01:04:27.725Z,13.53
2019-03-23T01:07:00.299Z,12.60
2019-03-23T01:09:31.976Z,12.63
2019-03-23T01:12:04.059Z,13.80
2019-03-23T01:14:36.149Z,12.47
2019-03-23T01:17:08.231Z,11.63
2019-03-23T01:19:40.247Z,11.50
2019-03-23T01:22:12.137Z,12.57
2019-03-23T01:24:44.157Z,12.67
2019-03-23T01:27:15.718Z,12.03
2019-03-23T01:29:47.878Z,11.80
2019-03-23T01:32:20.264Z,11.07
2019-03-23T01:34:51.938Z,11.23
2019-03-23T01:37:23.719Z,11.07
2019-03-23T01:39:55.785Z,11.27
2019-03-23T01:42:28.160Z,12.40
2019-03-23T01:44:59.952Z,12.20
2019-03-23T01:47:31.836Z,10.80
2019-03-23T01:50:04.007Z,10.30
2019-03-23T01:52:36.094Z,10.77
2019-03-23T01:55:08.615Z,10.87
2019-03-23T01:57:40.758Z,10.37
2019-03-23T02:00:12.930Z,10.57
2019-03-23T02:02:47.510Z,10.90
2019-03-23T02:05:19.076Z,11.00
2019-03-23T02:07:51.270Z,11.17
2019-03-23T02:10:23.811Z,10.73
2019-03-23T02:12:55.922Z,11.53
2019-03-23T02:15:27.727Z,9.83
2019-03-23T02:18:04.107Z,10.20
2019-03-23T02:20:38.258Z,10.20
2019-03-23T02:23:10.492Z,11.00
2019-03-23T02:25:42.580Z,10.43
2019-03-23T02:28:14.647Z,10.07
2019-03-23T02:30:46.273Z,10.27
2019-03-23T02:33:18.291Z,10.60
2019-03-23T02:35:49.988Z,10.40
2019-03-23T02:38:22.569Z,10.17
2019-03-23T02:40:54.285Z,9.43
2019-03-23T02:43:26.300Z,10.13
2019-03-23T02:46:00.087Z,9.20
2019-03-23T02:48:31.803Z,9.40
2019-03-23T02:51:03.324Z,10.97
2019-03-23T02:53:35.373Z,10.63
2019-03-23T02:56:10.249Z,11.60
2019-03-23T02:58:42.386Z,11.07
2019-03-23T03:01:14.288Z,10.60
2019-03-23T03:03:46.485Z,10.17
2019-03-23T03:06:18.075Z,10.73
2019-03-23T03:08:50.311Z,10.37
2019-03-23T03:11:22.188Z,9.97
2019-03-23T03:13:54.388Z,9.97
2019-03-23T03:16:26.351Z,9.73
2019-03-23T03:18:58.129Z,8.63
2019-03-23T03:21:30.081Z,9.23
2019-03-23T03:24:03.258Z,10.40
2019-03-23T03:26:34.990Z,9.77
2019-03-23T03:29:06.615Z,10.73
2019-03-23T03:31:38.232Z,10.33
2019-03-23T03:34:10.723Z,10.30
2019-03-23T03:36:42.891Z,11.00
2019-03-23T03:39:14.903Z,10.70
2019-03-23T03:41:46.835Z,9.90
2019-03-23T03:44:18.492Z,9.83
2019-03-23T03:46:50.410Z,10.10
2019-03-23T03:49:22.507Z,9.00
2019-03-23T03:51:54.233Z,10.07
2019-03-23T03:54:26.254Z,9.43
2019-03-23T03:56:57.810Z,8.57
2019-03-23T03:59:29.359Z,9.60
2019-03-23T04:02:01.669Z,8.97
2019-03-23T04:04:33.115Z,9.80
2019-03-23T04:07:06.373Z,10.17
2019-03-23T04:09:40.457Z,9.23
2019-03-23T04:12:12.386Z,9.53
2019-03-23T04:14:43.937Z,10.00
2019-03-23T04:17:17.186Z,10.07
2019-03-23T04:19:49.063Z,10.80
2019-03-23T04:22:20.649Z,10.43
2019-03-23T04:24:52.521Z,10.30
2019-03-23T04:27:24.585Z,10.07
2019-03-23T04:29:56.492Z,10.40
2019-03-23T04:32:28.913Z,11.13
2019-03-23T04:35:01.024Z,10.33
2019-03-23T04:37:32.985Z,10.30
2019-03-23T04:40:04.963Z,9.73
2019-03-23T04:42:36.845Z,9.83
2019-03-23T04:45:09.165Z,9.40
2019-03-23T04:47:41.511Z,9.37
2019-03-23T04:50:13.165Z,9.10
2019-03-23T04:52:45.096Z,9.63
2019-03-23T04:55:16.928Z,10.23
2019-03-23T04:57:48.947Z,9.43
2019-03-23T05:00:20.651Z,11.03
2019-03-23T05:02:53.324Z,11.50
2019-03-23T05:05:25.143Z,10.30
2019-03-23T05:07:56.521Z,9.60
2019-03-23T05:10:28.484Z,10.40
2019-03-23T05:13:01.343Z,11.77
2019-03-23T05:15:36.229Z,10.53
2019-03-23T05:18:08.437Z,10.50
2019-03-23T05:20:41.143Z,9.53
2019-03-23T05:23:13.695Z,10.50
2019-03-23T05:25:45.296Z,10.47
2019-03-23T05:28:19.179Z,9.97
2019-03-23T05:30:50.844Z,9.80
2019-03-23T05:33:22.798Z,10.23
2019-03-23T05:35:54.976Z,10.20
2019-03-23T05:38:27.076Z,9.93
2019-03-23T05:41:00.131Z,9.90
2019-03-23T05:43:32.660Z,10.67
2019-03-23T05:46:04.662Z,10.33
2019-03-23T05:48:37.077Z,9.47
2019-03-23T05:51:09.220Z,10.20
2019-03-23T05:53:41.595Z,10.77
2019-03-23T05:56:13.491Z,10.50
2019-03-23T05:58:45.289Z,11.23
2019-03-23T06:01:17.315Z,11.20
2019-03-23T06:03:49.234Z,12.90
2019-03-23T06:06:20.932Z,13.90
2019-03-23T06:08:55.254Z,14.63
2019-03-23T06:11:26.345Z,16.63
2019-03-23T06:13:58.553Z,17.83
2019-03-23T06:16:30.276Z,17.67
2019-03-23T06:19:01.968Z,16.07
2019-03-23T06:21:34.435Z,12.70
2019-03-23T06:24:06.383Z,11.97
2019-03-23T06:26:39.187Z,13.50
2019-03-23T06:29:11.840Z,13.33
2019-03-23T06:31:44.136Z,11.83
2019-03-23T06:34:15.741Z,11.63
2019-03-23T06:36:48.322Z,12.80
2019-03-23T06:39:20.083Z,12.63
2019-03-23T06:41:51.937Z,13.07
2019-03-23T06:44:23.487Z,12.50
2019-03-23T06:46:55.510Z,11.13
2019-03-23T06:49:28.073Z,11.37
2019-03-23T06:52:00.304Z,11.67
2019-03-23T06:54:31.888Z,11.40
2019-03-23T06:57:05.877Z,11.80
2019-03-23T06:59:40.420Z,11.53
2019-03-23T07:02:15.471Z,11.63
2019-03-23T07:04:48.782Z,11.07
2019-03-23T07:07:20.650Z,10.53
2019-03-23T07:09:53.038Z,11.80
2019-03-23T07:12:25.282Z,12.97
2019-03-23T07:14:57.014Z,11.07
2019-03-23T07:17:28.877Z,13.67
2019-03-23T07:20:01.023Z,11.30
2019-03-23T07:22:34.105Z,12.80
2019-03-23T07:25:06.944Z,12.57
2019-03-23T07:27:41.928Z,12.57
2019-03-23T07:30:16.091Z,11.47
2019-03-23T07:32:47.845Z,11.60
2019-03-23T07:35:20.193Z,11.63
2019-03-23T07:37:57.110Z,11.47
2019-03-23T07:40:29.181Z,10.80
2019-03-23T07:43:00.887Z,11.53
2019-03-23T07:45:33.062Z,10.80
2019-03-23T07:48:05.079Z,10.73
2019-03-23T07:50:38.116Z,9.77
2019-03-23T07:53:10.426Z,10.50
2019-03-23T07:55:42.291Z,10.63
2019-03-23T07:58:21.310Z,10.27
2019-03-23T08:00:53.297Z,9.07
2019-03-23T08:03:25.259Z,9.83
2019-03-23T08:05:57.212Z,9.73
2019-03-23T08:08:35.066Z,10.27
2019-03-23T08:11:12.020Z,9.30
2019-03-23T08:13:46.833Z,9.87
2019-03-23T08:16:19.580Z,10.07
2019-03-23T08:18:55.809Z,9.30
2019-03-23T08:21:29.936Z,9.63
2019-03-23T08:24:03.370Z,9.30
2019-03-23T08:26:42.388Z,9.47
2019-03-23T08:29:27.836Z,8.57
2019-03-23T08:32:03.366Z,10.20
2019-03-23T08:34:36.015Z,9.50
2019-03-23T08:37:10.453Z,9.80
2019-03-23T08:39:48.493Z,9.93
2019-03-23T08:42:16.940Z,9.80
2019-03-23T08:44:50.039Z,9.77
2019-03-23T08:47:26.075Z,9.90
2019-03-23T08:49:59.643Z,10.53
2019-03-23T08:52:31.558Z,10.20
2019-03-23T08:55:06.913Z,9.80
2019-03-23T08:57:42.417Z,10.40
2019-03-23T09:00:51.449Z,10.27
2019-03-23T09:03:25.023Z,12.43
2019-03-23T09:05:57.011Z,12.73
2019-03-23T09:08:30.672Z,11.00
2019-03-23T09:11:05.443Z,10.73
2019-03-23T09:13:40.801Z,9.87
2019-03-23T09:16:15.716Z,11.47
2019-03-23T09:18:47.377Z,10.43
2019-03-23T09:21:23.738Z,10.67
2019-03-23T09:24:08.914Z,12.40
2019-03-23T09:26:42.075Z,11.70
2019-03-23T09:29:25.176Z,13.53
2019-03-23T09:32:02.261Z,12.97
2019-03-23T09:34:36.957Z,12.80
2019-03-23T09:37:09.316Z,13.30
2019-03-23T09:39:43.859Z,12.33
2019-03-23T09:42:15.826Z,14.03
2019-03-23T09:44:47.722Z,12.00
2019-03-23T09:47:19.570Z,11.83
2019-03-23T09:49:56.471Z,12.87
2019-03-23T09:52:43.096Z,12.17
2019-03-23T09:55:17.989Z,12.43
2019-03-23T09:57:59.409Z,12.47
2019-03-23T10:00:33.188Z,11.83
2019-03-23T10:03:05.959Z,12.07
2019-03-23T10:05:42.645Z,11.73
2019-03-23T10:08:56.477Z,11.97
2019-03-23T10:11:29.701Z,13.57
2019-03-23T10:14:03.188Z,12.10
2019-03-23T10:16:43.836Z,11.17
2019-03-23T10:19:23.307Z,11.53
2019-03-23T10:21:55.214Z,11.77
2019-03-23T10:24:27.484Z,12.23
2019-03-23T10:26:59.852Z,12.77
2019-03-23T10:29:33.432Z,11.90
2019-03-23T10:32:07.991Z,11.00
2019-03-23T10:34:48.274Z,10.97
2019-03-23T10:37:20.470Z,11.60
2019-03-23T10:39:52.829Z,11.50
2019-03-23T10:42:56.315Z,11.73
2019-03-23T10:45:56.000Z,11.93
2019-03-23T10:48:29.983Z,12.27
2019-03-23T10:51:01.522Z,11.80
2019-03-23T10:53:36.955Z,11.30
2019-03-23T10:56:09.019Z,12.37
2019-03-23T10:58:40.636Z,11.10
2019-03-23T11:01:13.306Z,12.67
2019-03-23T11:03:46.302Z,13.00
2019-03-23T11:06:18.355Z,10.93
2019-03-23T11:08:57.010Z,12.23
2019-03-23T11:11:36.314Z,11.57
2019-03-23T11:14:13.386Z,12.63
2019-03-23T11:16:48.941Z,11.97
2019-03-23T11:19:25.783Z,11.77
2019-03-23T11:22:21.337Z,10.53
2019-03-23T11:24:55.101Z,12.37
2019-03-23T11:27:35.506Z,11.03
2019-03-23T11:30:10.338Z,10.67
2019-03-23T11:32:42.115Z,10.37
2019-03-23T11:35:14.412Z,10.70
2019-03-23T11:37:49.199Z,11.43
2019-03-23T11:40:25.411Z,11.73
2019-03-23T11:42:57.380Z,11.00
2019-03-23T11:45:36.848Z,12.20
2019-03-23T11:48:08.781Z,11.00
2019-03-23T11:50:42.372Z,11.23
2019-03-23T11:53:14.671Z,13.20
2019-03-23T11:55:46.327Z,11.83
2019-03-23T11:58:17.934Z,12.90
2019-03-23T12:00:51.378Z,12.00
2019-03-23T12:03:23.098Z,11.30
2019-03-23T12:05:57.825Z,12.57
2019-03-23T12:08:30.600Z,11.57
2019-03-23T12:11:04.089Z,12.57
2019-03-23T12:13:35.875Z,12.33
2019-03-23T12:16:07.874Z,11.20
2019-03-23T12:18:43.097Z,11.90
2019-03-23T12:21:15.096Z,10.87
2019-03-23T12:23:47.307Z,10.60
2019-03-23T12:26:19.151Z,9.83
2019-03-23T12:28:51.288Z,9.73
2019-03-23T12:31:23.656Z,11.53
2019-03-23T12:33:55.755Z,15.13
2019-03-23T12:36:37.502Z,19.73
2019-03-23T12:39:13.330Z,22.13
2019-03-23T12:41:46.419Z,14.87
2019-03-23T12:44:26.700Z,14.33
2019-03-23T12:47:00.751Z,17.63
2019-03-23T12:49:36.110Z,19.40
2019-03-23T12:52:09.135Z,19.17
2019-03-23T12:54:43.152Z,19.00
2019-03-23T12:57:17.164Z,22.50
2019-03-23T12:59:58.836Z,21.97
2019-03-23T13:02:34.461Z,23.00
2019-03-23T13:05:07.156Z,26.73
2019-03-23T13:07:43.622Z,25.47
2019-03-23T13:10:18.435Z,27.07
2019-03-23T13:12:52.139Z,24.40
2019-03-23T13:15:25.225Z,22.20
2019-03-23T13:17:58.105Z,24.73
2019-03-23T13:20:37.867Z,26.03
2019-03-23T13:23:12.665Z,25.20
2019-03-23T13:25:45.980Z,24.23
2019-03-23T13:28:20.814Z,23.93
2019-03-23T13:30:55.852Z,23.83
2019-03-23T13:33:35.027Z,23.57
2019-03-23T13:36:10.888Z,25.40
2019-03-23T13:38:45.426Z,23.07
2019-03-23T13:41:17.655Z,23.03
2019-03-23T13:43:50.078Z,24.90
2019-03-23T13:46:22.199Z,25.33
2019-03-23T13:49:04.578Z,25.13
2019-03-23T13:51:40.923Z,24.20
2019-03-23T13:54:22.181Z,27.37
2019-03-23T13:56:55.589Z,25.47
2019-03-23T13:59:30.389Z,25.80
2019-03-23T14:02:02.111Z,26.97
2019-03-23T14:04:33.744Z,24.70
2019-03-23T14:07:09.519Z,25.73
2019-03-23T14:09:41.344Z,25.47
2019-03-23T14:14:57.361Z,24.40
2019-03-23T14:17:29.196Z,23.10
2019-03-23T14:20:01.572Z,23.70
2019-03-23T14:22:33.109Z,24.20
2019-03-23T14:25:05.171Z,23.13
2019-03-23T14:27:37.215Z,23.63
2019-03-23T14:30:09.278Z,24.97
2019-03-23T14:32:46.107Z,22.93
2019-03-23T14:35:17.715Z,24.17
2019-03-23T14:37:55.092Z,24.60
2019-03-23T14:40:41.918Z,25.10
2019-03-23T14:43:13.406Z,24.37
2019-03-23T14:45:45.232Z,24.60
2019-03-23T14:48:17.091Z,24.53
2019-03-23T14:50:56.262Z,23.47
2019-03-23T14:53:29.115Z,24.17
2019-03-23T14:56:03.679Z,23.30
2019-03-23T14:58:36.337Z,24.50
2019-03-23T15:01:08.549Z,23.33
2019-03-23T15:03:39.956Z,22.53
2019-03-23T15:06:11.731Z,23.80
2019-03-23T15:08:46.113Z,24.77
2019-03-23T15:11:19.447Z,25.00
2019-03-23T15:13:53.087Z,23.50
2019-03-23T15:16:25.085Z,23.73
2019-03-23T15:18:56.657Z,22.70
2019-03-23T15:21:27.939Z,24.03
2019-03-23T15:24:01.287Z,24.83
2019-03-23T15:26:33.833Z,25.20
2019-03-23T15:29:05.917Z,22.63
2019-03-23T15:31:37.363Z,19.47
2019-03-23T15:34:10.156Z,18.70
2019-03-23T15:36:43.139Z,16.53
2019-03-23T15:39:15.423Z,16.23
2019-03-23T15:42:07.095Z,16.17
2019-03-23T15:44:41.201Z,14.33
2019-03-23T15:47:12.548Z,14.83
2019-03-23T15:49:47.269Z,13.93
2019-03-23T15:52:21.395Z,13.87
2019-03-23T15:54:54.150Z,13.83
2019-03-23T15:57:25.412Z,14.33
2019-03-23T15:59:58.464Z,13.43
2019-03-23T16:02:30.058Z,13.23
2019-03-23T16:05:01.876Z,14.00
2019-03-23T16:07:33.703Z,13.67
2019-03-23T16:10:06.211Z,13.30
2019-03-23T16:12:38.230Z,13.87
2019-03-23T16:15:11.772Z,17.40
2019-03-23T16:17:43.486Z,35.63
2019-03-23T16:20:23.584Z,37.93
2019-03-23T16:22:54.831Z,41.83
2019-03-23T16:25:28.396Z,42.83
2019-03-23T16:28:00.296Z,45.57
2019-03-23T16:30:33.740Z,43.83
2019-03-23T16:33:05.381Z,46.20
2019-03-23T16:35:38.029Z,44.53
2019-03-23T16:38:12.335Z,45.70
2019-03-23T16:40:44.212Z,46.40
2019-03-23T16:43:22.278Z,45.47
2019-03-23T16:45:53.988Z,47.07
2019-03-23T16:48:26.105Z,46.50
2019-03-23T16:51:02.188Z,46.47
2019-03-23T16:53:36.380Z,45.63
2019-03-23T16:56:08.091Z,45.20
2019-03-23T16:58:40.074Z,49.83
2019-03-23T17:01:12.111Z,47.23
2019-03-23T17:03:43.511Z,47.83
2019-03-23T17:06:14.791Z,49.53
2019-03-23T17:08:46.983Z,51.33
2019-03-23T17:11:19.098Z,48.67
2019-03-23T17:13:53.292Z,48.77
2019-03-23T17:16:24.769Z,45.13
2019-03-23T17:19:02.087Z,43.83
2019-03-23T17:21:36.668Z,45.27
2019-03-23T17:24:08.280Z,47.73
2019-03-23T17:26:39.688Z,46.60
2019-03-23T17:29:11.453Z,44.67
2019-03-23T17:31:43.835Z,44.07
2019-03-23T17:34:16.710Z,43.17
2019-03-23T17:36:54.196Z,41.93
2019-03-23T17:39:25.913Z,42.00
2019-03-23T17:41:57.582Z,44.47
2019-03-23T17:44:30.410Z,43.40
2019-03-23T17:47:25.314Z,42.27
2019-03-23T17:49:57.330Z,42.83
2019-03-23T17:52:31.103Z,43.80
2019-03-23T17:55:07.840Z,41.70
2019-03-23T17:57:40.055Z,41.00
2019-03-23T18:00:16.685Z,41.90
2019-03-23T18:02:49.163Z,41.93
2019-03-23T18:05:22.248Z,43.97
2019-03-23T18:07:54.278Z,43.20
2019-03-23T18:10:28.333Z,44.07
2019-03-23T18:13:29.283Z,43.40
2019-03-23T18:16:15.364Z,43.33
2019-03-23T18:18:47.604Z,45.57
2019-03-23T18:21:19.678Z,43.93
2019-03-23T18:23:51.999Z,43.13
2019-03-23T18:26:23.954Z,42.40
2019-03-23T18:28:57.807Z,44.50
2019-03-23T18:31:30.105Z,41.97
2019-03-23T18:34:05.236Z,42.87
2019-03-23T18:36:39.315Z,43.53
2019-03-23T18:39:17.065Z,47.10
2019-03-23T18:41:55.503Z,45.47
2019-03-23T18:44:29.941Z,45.17
2019-03-23T18:47:07.047Z,45.10
2019-03-23T18:49:43.152Z,46.93
2019-03-23T18:52:20.089Z,45.63
2019-03-23T18:54:58.214Z,44.27
2019-03-23T18:57:35.725Z,45.27
2019-03-23T19:00:19.155Z,45.57
2019-03-23T19:03:01.080Z,44.70
2019-03-23T19:05:39.210Z,45.57
2019-03-23T19:08:14.531Z,49.27
2019-03-23T19:10:56.527Z,46.33
2019-03-23T19:13:38.168Z,45.00
2019-03-23T19:16:14.301Z,46.00
2019-03-23T19:18:46.267Z,44.67
2019-03-23T19:21:20.700Z,43.07
2019-03-23T19:23:52.857Z,42.50
2019-03-23T19:26:39.551Z,46.67
2019-03-23T19:29:24.987Z,44.20
2019-03-23T19:32:01.994Z,41.57
2019-03-23T19:34:51.734Z,41.77
2019-03-23T19:37:21.955Z,40.67
2019-03-23T19:40:00.715Z,39.40
2019-03-23T19:42:46.696Z,43.43
2019-03-23T19:45:41.707Z,43.50
2019-03-23T19:48:19.845Z,40.90
2019-03-23T19:50:54.109Z,39.30
2019-03-23T19:53:27.423Z,42.50
2019-03-23T19:56:02.206Z,42.93
2019-03-23T19:58:37.101Z,41.50
2019-03-23T20:01:10.410Z,42.27
2019-03-23T20:03:47.984Z,39.23
2019-03-23T20:06:25.155Z,42.13
2019-03-23T20:08:58.877Z,39.90
2019-03-23T20:11:31.994Z,40.87
2019-03-23T20:14:10.949Z,39.63
2019-03-23T20:16:49.082Z,39.80
2019-03-23T20:19:27.095Z,40.33
2019-03-23T20:22:02.578Z,39.97
2019-03-23T20:24:42.367Z,41.07
2019-03-23T20:27:11.854Z,41.43
2019-03-23T20:29:49.227Z,39.60
2019-03-23T20:32:29.336Z,40.97
2019-03-23T20:35:11.156Z,37.73
2019-03-23T20:37:48.796Z,39.83
2019-03-23T20:40:20.834Z,40.23
2019-03-23T20:42:56.993Z,40.43
2019-03-23T20:45:32.937Z,40.57
2019-03-23T20:48:11.218Z,39.07
2019-03-23T20:50:51.338Z,39.67
2019-03-23T20:53:26.197Z,42.67
2019-03-23T20:55:59.513Z,41.50
2019-03-23T20:58:34.590Z,43.97
2019-03-23T21:01:23.849Z,43.67
2019-03-23T21:03:57.211Z,40.33
2019-03-23T21:06:28.862Z,41.47
2019-03-23T21:09:03.097Z,40.90
2019-03-23T21:11:36.637Z,42.00
2019-03-23T21:14:20.097Z,44.03
2019-03-23T21:17:02.125Z,41.00
2019-03-23T21:19:36.606Z,42.77
2019-03-23T21:22:08.744Z,43.80
2019-03-23T21:24:42.499Z,39.77
2019-03-23T21:27:17.226Z,44.23
2019-03-23T21:29:51.610Z,41.23
2019-03-23T21:32:42.243Z,41.00
2019-03-23T21:35:15.783Z,44.00
2019-03-23T21:37:53.524Z,41.27
2019-03-23T21:40:25.660Z,42.33
2019-03-23T21:42:58.272Z,42.83
2019-03-23T21:45:44.462Z,45.40
2019-03-23T21:48:24.824Z,41.03
2019-03-23T21:50:58.202Z,40.60
2019-03-23T21:53:31.332Z,42.03
2019-03-23T21:56:05.091Z,41.00
2019-03-23T21:58:45.297Z,40.87
2019-03-23T22:01:19.238Z,41.20
2019-03-23T22:03:55.610Z,41.27
2019-03-23T22:06:30.603Z,42.03
2019-03-23T22:09:26.567Z,42.33
2019-03-23T22:12:03.755Z,42.23
2019-03-23T22:14:41.804Z,40.50
2019-03-23T22:17:13.927Z,42.73
2019-03-23T22:19:46.589Z,43.00
2019-03-23T22:22:22.180Z,40.77
2019-03-23T22:24:56.135Z,43.63
2019-03-23T22:27:30.142Z,42.33
2019-03-23T22:30:02.506Z,43.03
2019-03-23T22:32:35.577Z,42.83
2019-03-23T22:35:17.682Z,43.93
2019-03-23T22:37:52.401Z,44.40
2019-03-23T22:40:28.423Z,43.07
2019-03-23T22:43:13.120Z,41.27
2019-03-23T22:45:48.615Z,44.67
2019-03-23T22:48:20.960Z,44.03
2019-03-23T22:50:57.087Z,44.07
2019-03-23T22:53:29.450Z,46.80
2019-03-23T22:56:13.184Z,44.40
2019-03-23T22:58:45.172Z,42.57
2019-03-23T23:01:20.016Z,42.83
2019-03-23T23:03:51.936Z,41.83
2019-03-23T23:06:27.425Z,42.17
2019-03-23T23:09:01.942Z,41.17
2019-03-23T23:11:37.694Z,43.20
2019-03-23T23:14:11.167Z,42.10
2019-03-23T23:16:47.834Z,43.17
2019-03-23T23:19:20.154Z,41.07
2019-03-23T23:21:52.195Z,42.63
2019-03-23T23:24:27.043Z,41.37
2019-03-23T23:26:58.904Z,44.07
2019-03-23T23:29:33.547Z,40.97
2019-03-23T23:32:05.138Z,43.60
2019-03-23T23:34:37.107Z,41.87
2019-03-23T23:37:09.320Z,40.00
2019-03-23T23:39:41.386Z,41.27
2019-03-23T23:42:14.480Z,42.07
2019-03-23T23:44:48.976Z,43.67
2019-03-23T23:47:25.115Z,39.87
2019-03-23T23:49:57.192Z,42.50
2019-03-23T23:52:31.746Z,43.00
2019-03-23T23:55:03.289Z,44.90
2019-03-23T23:57:37.231Z,44.27
